Time;durP1;ratioP1;P1;durP2;ratioP2;P2;SDS_P1;SDS_P2;PMS_P1;PMS_P2;Temp;Humidity;BMP_temperature;BMP_pressure;BME280_temperature;BME280_humidity;BME280_pressure;Samples;Min_cycle;Max_cycle;Signal;HPM_P1;HPM_P2
2023/11/01 00:00:37;;;;;;;;;;;;;;;3.49;100.00;99987.94;4995580;28;19933;-82
2023/11/01 00:03:09;;;;;;;;;;;;;;;3.44;100.00;99977.94;4994471;28;19922;-84
2023/11/01 00:05:39;;;;;;;;;;;;;;;3.52;100.00;99982.88;4995014;28;19921;-82
2023/11/01 00:08:07;;;;;;;;;;;;;;;3.57;100.00;99982.13;4994486;28;19922;-85
2023/11/01 00:10:35;;;;;;;;;;;;;;;3.63;100.00;99980.28;4996066;28;20576;-84
2023/11/01 00:13:03;;;;;;;;;;;;;;;3.64;100.00;99984.63;4991265;28;19929;-84
2023/11/01 00:15:36;;;;;;;;;;;;;;;3.66;100.00;99993.25;4996688;28;19945;-82
2023/11/01 00:18:22;;;;;;;;;;;;;;;3.71;100.00;99990.63;4976290;28;19926;-82
2023/11/01 00:20:52;;;;;;;;;;;;;;;3.72;100.00;99993.06;4995379;28;19922;-82
2023/11/01 00:23:20;;;;;;;;;;;;;;;3.74;100.00;99993.63;4995158;28;20594;-82
2023/11/01 00:25:48;;;;;;;;;;;;;;;3.80;100.00;99990.97;4992727;28;21509;-82
2023/11/01 00:28:15;;;;;;;;;;;;;;;3.85;100.00;99996.44;4981424;28;20390;-82
2023/11/01 00:30:44;;;;;;;;;;;;;;;3.91;100.00;99995.44;4992193;28;20403;-83
2023/11/01 00:33:11;;;;;;;;;;;;;;;3.92;100.00;99999.75;4994281;28;20392;-84
2023/11/01 00:35:44;;;;;;;;;;;;;;;3.94;100.00;99992.22;4990104;28;19929;-82
2023/11/01 00:38:22;;;;;;;;;;;;;;;3.92;100.00;99989.81;4978358;28;20330;-82
2023/11/01 00:40:50;;;;;;;;;;;;;;;3.95;100.00;99993.03;4967049;28;20291;-83
2023/11/01 00:43:18;;;;;;;;;;;;;;;3.97;100.00;99983.66;4993546;28;19941;-81
2023/11/01 00:45:46;;;;;;;;;;;;;;;3.91;100.00;99987.38;4978612;28;19926;-83
2023/11/01 00:48:14;;;;;;;;;;;;;;;3.87;100.00;99988.94;4989576;28;19922;-82
2023/11/01 00:50:42;;;;;;;;;;;;;;;3.95;100.00;99991.19;4994532;28;19922;-84
2023/11/01 00:53:10;;;;;;;;;;;;;;;3.99;100.00;99991.47;4978567;28;19922;-81
2023/11/01 00:55:44;;;;;;;;;;;;;;;3.95;100.00;99993.03;4994827;28;19944;-81
2023/11/01 00:58:17;;;;;;;;;;;;;;;3.99;100.00;99989.59;4994125;28;19922;-81
2023/11/01 01:00:45;;;;;;;;;;;;;;;3.97;100.00;99999.00;4988135;28;19922;-81
2023/11/01 01:03:13;;;;;;;;;;;;;;;4.05;100.00;99985.88;4987540;28;19922;-82
2023/11/01 01:05:46;;;;;;;;;;;;;;;4.07;100.00;99988.31;4995132;28;19921;-81
2023/11/01 01:08:19;;;;;;;;;;;;;;;4.07;100.00;99986.47;4994171;28;19922;-84
2023/11/01 01:10:53;;;;;;;;;;;;;;;4.10;100.00;99990.50;4994332;28;20006;-85
2023/11/01 01:13:21;;;;;;;;;;;;;;;4.13;100.00;99995.41;4993962;28;20378;-82
2023/11/01 01:15:49;;;;;;;;;;;;;;;4.12;100.00;99992.97;4993857;28;19928;-81
2023/11/01 01:18:20;;;;;;;;;;;;;;;4.15;100.00;99998.63;4994506;28;19928;-82
2023/11/01 01:20:48;;;;;;;;;;;;;;;4.18;100.00;99997.31;4987588;28;19929;-82
2023/11/01 01:23:16;;;;;;;;;;;;;;;4.12;100.00;99988.38;4993572;28;19929;-82
2023/11/01 01:25:44;;;;;;;;;;;;;;;4.17;100.00;99999.22;4994880;28;19930;-81
2023/11/01 01:28:18;;;;;;;;;;;;;;;4.19;100.00;99986.28;4987676;28;19929;-82
2023/11/01 01:30:51;;;;;;;;;;;;;;;4.20;100.00;99989.81;4977693;28;19928;-80
2023/11/01 01:33:24;;;;;;;;;;;;;;;4.23;100.00;99978.53;4991788;28;19925;-81
2023/11/01 01:35:57;;;;;;;;;;;;;;;4.20;100.00;99979.84;4978054;28;19922;-81
2023/11/01 01:38:25;;;;;;;;;;;;;;;4.23;100.00;99967.75;4994193;28;19930;-81
2023/11/01 01:40:53;;;;;;;;;;;;;;;4.26;100.00;99969.94;4993229;28;19926;-81
2023/11/01 01:43:22;;;;;;;;;;;;;;;4.26;100.00;99969.94;4993781;28;19921;-81
2023/11/01 01:45:55;;;;;;;;;;;;;;;4.31;100.00;99958.38;4993900;28;19922;-81
2023/11/01 01:48:29;;;;;;;;;;;;;;;4.28;100.00;99965.13;4974912;28;19929;-82
2023/11/01 01:51:02;;;;;;;;;;;;;;;4.33;100.00;99967.03;4991389;28;19925;-81
2023/11/01 01:53:30;;;;;;;;;;;;;;;4.33;100.00;99967.84;4993067;28;19937;-82
2023/11/01 01:56:03;;;;;;;;;;;;;;;4.28;100.00;99962.44;4977824;28;20428;-82
2023/11/01 01:58:33;;;;;;;;;;;;;;;4.35;100.00;99967.56;4993536;28;19932;-81
2023/11/01 02:01:00;;;;;;;;;;;;;;;4.39;100.00;99969.53;4994977;28;19922;-81
2023/11/01 02:03:29;;;;;;;;;;;;;;;4.38;100.00;99970.59;4993116;28;19921;-82
2023/11/01 02:05:57;;;;;;;;;;;;;;;4.39;100.00;99955.22;4993132;28;19922;-82
2023/11/01 02:08:31;;;;;;;;;;;;;;;4.35;100.00;99960.31;4977186;28;20385;-81
2023/11/01 02:10:59;;;;;;;;;;;;;;;4.36;100.00;99966.50;4993267;28;19921;-81
2023/11/01 02:13:33;;;;;;;;;;;;;;;4.35;100.00;99952.25;4976841;28;19922;-81
2023/11/01 02:16:01;;;;;;;;;;;;;;;4.35;100.00;99956.81;4993875;28;20412;-82
2023/11/01 02:18:29;;;;;;;;;;;;;;;4.36;100.00;99963.81;4996441;28;19921;-81
2023/11/01 02:21:05;;;;;;;;;;;;;;;4.34;100.00;99968.66;4998168;28;20789;-81
2023/11/01 02:23:40;;;;;;;;;;;;;;;4.36;100.00;99972.72;4988636;28;19929;-81
2023/11/01 02:26:13;;;;;;;;;;;;;;;4.39;100.00;99980.31;4993415;28;19929;-81
2023/11/01 02:28:41;;;;;;;;;;;;;;;4.40;100.00;99979.22;4992695;28;19925;-81
2023/11/01 02:31:14;;;;;;;;;;;;;;;4.39;100.00;99979.47;4972941;28;19932;-81
2023/11/01 02:33:47;;;;;;;;;;;;;;;4.40;100.00;99979.22;4994138;28;19922;-81
2023/11/01 02:36:15;;;;;;;;;;;;;;;4.42;100.00;99978.97;4994484;28;19929;-81
2023/11/01 02:38:50;;;;;;;;;;;;;;;4.42;100.00;99971.69;4993161;28;19941;-81
2023/11/01 02:41:23;;;;;;;;;;;;;;;4.44;100.00;99960.66;4975563;28;19928;-82
2023/11/01 02:43:51;;;;;;;;;;;;;;;4.44;100.00;99966.06;4976265;28;20410;-81
2023/11/01 02:46:24;;;;;;;;;;;;;;;4.42;100.00;99968.19;4993405;28;19922;-82
2023/11/01 02:48:57;;;;;;;;;;;;;;;4.29;100.00;99964.03;4990268;28;19921;-81
2023/11/01 02:51:30;;;;;;;;;;;;;;;4.38;100.00;99970.59;4993598;28;19922;-81
2023/11/01 02:54:04;;;;;;;;;;;;;;;4.41;100.00;99966.56;4987489;28;20290;-81
2023/11/01 02:56:32;;;;;;;;;;;;;;;4.35;100.00;99960.31;4993317;28;20290;-84
2023/11/01 02:59:05;;;;;;;;;;;;;;;4.36;100.00;99964.63;4970415;28;19922;-80
2023/11/01 03:01:38;;;;;;;;;;;;;;;4.42;100.00;99963.63;4975110;28;19944;-81
2023/11/01 03:04:06;;;;;;;;;;;;;;;4.46;100.00;99968.47;4992286;28;19932;-81
2023/11/01 03:06:34;;;;;;;;;;;;;;;4.37;100.00;99966.25;4988697;28;19929;-82
2023/11/01 03:09:08;;;;;;;;;;;;;;;4.31;100.00;99967.28;4985480;28;19925;-81
2023/11/01 03:11:41;;;;;;;;;;;;;;;4.37;100.00;99970.84;4993311;28;19921;-81
2023/11/01 03:14:09;;;;;;;;;;;;;;;4.42;100.00;99973.59;4992046;28;19929;-80
2023/11/01 03:16:42;;;;;;;;;;;;;;;4.40;100.00;99964.94;4990526;28;19922;-80
2023/11/01 03:19:15;;;;;;;;;;;;;;;4.37;100.00;99968.94;4985279;28;19926;-82
2023/11/01 03:21:48;;;;;;;;;;;;;;;4.41;100.00;99969.25;4987776;28;19921;-81
2023/11/01 03:24:18;;;;;;;;;;;;;;;4.44;100.00;99966.06;4990084;28;19929;-81
2023/11/01 03:26:46;;;;;;;;;;;;;;;4.48;100.00;99969.84;4991760;28;19932;-81
2023/11/01 03:29:19;;;;;;;;;;;;;;;4.53;100.00;99966.38;4993405;28;19921;-81
2023/11/01 03:31:47;;;;;;;;;;;;;;;4.58;100.00;99961.03;4991813;28;19929;-80
2023/11/01 03:34:21;;;;;;;;;;;;;;;4.42;100.00;99965.50;4988481;28;20396;-82
2023/11/01 03:36:49;;;;;;;;;;;;;;;4.46;100.00;99946.94;4991395;28;19921;-81
2023/11/01 03:39:18;;;;;;;;;;;;;;;4.49;100.00;99941.03;4992148;28;19922;-81
2023/11/01 03:41:51;;;;;;;;;;;;;;;4.50;100.00;99938.09;4991312;28;19921;-81
2023/11/01 03:44:24;;;;;;;;;;;;;;;4.48;100.00;99932.13;4993050;28;19921;-84
2023/11/01 03:46:52;;;;;;;;;;;;;;;4.51;100.00;99933.50;4991203;28;19921;-80
2023/11/01 03:49:21;;;;;;;;;;;;;;;4.53;100.00;99925.97;4992127;28;19929;-82
2023/11/01 03:51:54;;;;;;;;;;;;;;;4.42;100.00;99931.28;4991410;28;20267;-81
2023/11/01 03:54:23;;;;;;;;;;;;;;;4.41;100.00;99945.81;4991465;28;19929;-80
2023/11/01 03:56:52;;;;;;;;;;;;;;;4.47;100.00;99943.19;4991804;28;19921;-81
2023/11/01 03:59:20;;;;;;;;;;;;;;;4.49;100.00;99949.09;4988389;28;19929;-81
2023/11/01 04:01:47;;;;;;;;;;;;;;;4.46;100.00;99944.22;4988559;28;20278;-80
2023/11/01 04:04:15;;;;;;;;;;;;;;;4.43;100.00;99935.63;4991460;28;19933;-83
2023/11/01 04:06:43;;;;;;;;;;;;;;;4.49;100.00;99919.47;4986662;28;19932;-82
2023/11/01 04:09:16;;;;;;;;;;;;;;;4.49;100.00;99930.25;4991165;28;19932;-80
2023/11/01 04:11:51;;;;;;;;;;;;;;;4.47;100.00;99925.13;4992823;28;19922;-81
2023/11/01 04:14:24;;;;;;;;;;;;;;;4.48;100.00;99925.94;4989633;28;19928;-80
2023/11/01 04:16:57;;;;;;;;;;;;;;;4.48;100.00;99925.94;4998028;28;20290;-80
2023/11/01 04:19:31;;;;;;;;;;;;;;;4.51;100.00;99925.41;4991825;28;20310;-80
2023/11/01 04:21:59;;;;;;;;;;;;;;;4.49;100.00;99914.06;4990236;28;19929;-80
2023/11/01 04:24:28;;;;;;;;;;;;;;;4.52;100.00;99905.50;4974818;28;19937;-80
2023/11/01 04:26:58;;;;;;;;;;;;;;;4.54;100.00;99909.56;4991392;28;19932;-81
2023/11/01 04:29:26;;;;;;;;;;;;;;;4.59;100.00;99904.19;4990619;28;20298;-80
2023/11/01 04:31:54;;;;;;;;;;;;;;;4.55;100.00;99904.97;4992582;28;19922;-81
2023/11/01 04:34:27;;;;;;;;;;;;;;;4.52;100.00;99908.19;4992019;28;19926;-80
2023/11/01 04:37:00;;;;;;;;;;;;;;;4.53;100.00;99915.19;4992927;28;20294;-80
2023/11/01 04:39:28;;;;;;;;;;;;;;;4.49;100.00;99912.22;4992946;28;19929;-80
2023/11/01 04:42:04;;;;;;;;;;;;;;;4.57;100.00;99913.59;4991069;28;19922;-80
2023/11/01 04:44:39;;;;;;;;;;;;;;;4.56;100.00;99904.72;4986277;28;19926;-80
2023/11/01 04:47:12;;;;;;;;;;;;;;;4.53;100.00;99901.72;4976069;28;19922;-80
2023/11/01 04:49:45;;;;;;;;;;;;;;;4.56;100.00;99901.22;4994157;28;19929;-81
2023/11/01 04:52:18;;;;;;;;;;;;;;;4.59;100.00;99896.09;4994878;28;19922;-79
2023/11/01 04:54:46;;;;;;;;;;;;;;;4.57;100.00;99894.72;4994712;28;20366;-80
2023/11/01 04:57:20;;;;;;;;;;;;;;;4.58;100.00;99897.19;4995081;28;19922;-80
2023/11/01 04:59:48;;;;;;;;;;;;;;;4.57;100.00;99895.56;4995389;28;19926;-80
2023/11/01 05:02:21;;;;;;;;;;;;;;;4.55;100.00;99886.91;4993461;28;19932;-82
2023/11/01 05:04:54;;;;;;;;;;;;;;;4.60;100.00;99886.16;4990478;28;19921;-80
2023/11/01 05:07:22;;;;;;;;;;;;;;;4.55;100.00;99878.81;4994268;28;20401;-82
2023/11/01 05:09:50;;;;;;;;;;;;;;;4.56;100.00;99874.28;4995774;28;19921;-80
2023/11/01 05:12:25;;;;;;;;;;;;;;;4.57;100.00;99870.47;4975508;28;20294;-81
2023/11/01 05:14:53;;;;;;;;;;;;;;;4.62;100.00;99867.03;4988809;28;19929;-80
2023/11/01 05:17:26;;;;;;;;;;;;;;;4.50;100.00;99877.97;4978787;28;19925;-81
2023/11/01 05:19:58;;;;;;;;;;;;;;;4.51;100.00;99877.72;4990526;28;19926;-80
2023/11/01 05:22:31;;;;;;;;;;;;;;;4.49;100.00;99887.13;4988496;28;19922;-79
2023/11/01 05:24:59;;;;;;;;;;;;;;;4.47;100.00;99879.31;4992684;28;19944;-79
2023/11/01 05:27:33;;;;;;;;;;;;;;;4.52;100.00;99870.47;4978261;28;20405;-82
2023/11/01 05:30:01;;;;;;;;;;;;;;;4.47;100.00;99867.72;4992856;28;19922;-81
2023/11/01 05:32:34;;;;;;;;;;;;;;;4.47;100.00;99871.22;4974511;28;19929;-82
2023/11/01 05:35:03;;;;;;;;;;;;;;;4.50;100.00;99868.03;4995331;28;19922;-83
2023/11/01 05:37:36;;;;;;;;;;;;;;;4.48;100.00;99875.56;4993843;28;19925;-82
2023/11/01 05:40:13;;;;;;;;;;;;;;;4.56;100.00;99869.69;4994876;28;19933;-79
2023/11/01 05:42:44;;;;;;;;;;;;;;;4.56;100.00;99869.69;4993477;28;19929;-80
2023/11/01 05:45:15;;;;;;;;;;;;;;;4.51;100.00;99864.25;4993819;28;19922;-80
2023/11/01 05:47:49;;;;;;;;;;;;;;;4.50;100.00;99873.44;4994545;28;19921;-79
2023/11/01 05:50:17;;;;;;;;;;;;;;;4.55;100.00;99868.06;4975129;28;19922;-81
2023/11/01 05:52:45;;;;;;;;;;;;;;;4.56;100.00;99866.19;4991267;28;19928;-79
2023/11/01 05:55:18;;;;;;;;;;;;;;;4.53;100.00;99866.69;4977055;28;19929;-78
2023/11/01 05:57:50;;;;;;;;;;;;;;;4.59;100.00;99865.66;4986268;28;19929;-81
2023/11/01 06:00:23;;;;;;;;;;;;;;;4.51;100.00;99866.16;4971815;28;19929;-80
2023/11/01 06:02:51;;;;;;;;;;;;;;;4.54;100.00;99866.44;4990273;28;19944;-81
2023/11/01 06:05:26;;;;;;;;;;;;;;;4.55;100.00;99862.66;4993470;28;19922;-80
2023/11/01 06:07:59;;;;;;;;;;;;;;;4.56;100.00;99853.50;4993461;28;19933;-80
2023/11/01 06:10:26;;;;;;;;;;;;;;;4.59;100.00;99847.59;4993806;28;20936;-79
2023/11/01 06:13:01;;;;;;;;;;;;;;;4.54;100.00;99855.66;4973455;28;19933;-79
2023/11/01 06:15:29;;;;;;;;;;;;;;;4.49;100.00;99855.63;4993653;28;19937;-81
2023/11/01 06:18:04;;;;;;;;;;;;;;;4.56;100.00;99861.59;4998086;28;19921;-81
2023/11/01 06:20:37;;;;;;;;;;;;;;;4.53;100.00;99853.22;4991033;28;20758;-83
2023/11/01 06:23:10;;;;;;;;;;;;;;;4.57;100.00;99857.00;4994622;28;20279;-82
2023/11/01 06:25:44;;;;;;;;;;;;;;;4.55;100.00;99865.34;4988690;28;19937;-82
2023/11/01 06:28:14;;;;;;;;;;;;;;;4.58;100.00;99866.72;4990908;28;19922;-79
2023/11/01 06:30:42;;;;;;;;;;;;;;;4.55;100.00;99862.66;4993311;28;19928;-81
2023/11/01 06:33:15;;;;;;;;;;;;;;;4.60;100.00;99868.09;4992432;28;20397;-81
2023/11/01 06:35:43;;;;;;;;;;;;;;;4.60;100.00;99860.00;4992771;28;19922;-81
2023/11/01 06:38:11;;;;;;;;;;;;;;;4.56;100.00;99860.78;4991996;28;19922;-82
2023/11/01 06:40:44;;;;;;;;;;;;;;;4.56;100.00;99855.41;4992192;28;19921;-81
2023/11/01 06:43:18;;;;;;;;;;;;;;;4.60;100.00;99860.00;4996212;28;19929;-81
2023/11/01 06:45:46;;;;;;;;;;;;;;;4.64;100.00;99860.31;4998319;28;20302;-81
2023/11/01 06:48:14;;;;;;;;;;;;;;;4.60;100.00;99851.91;4992915;28;19949;-82
2023/11/01 06:50:42;;;;;;;;;;;;;;;4.57;100.00;99849.75;4991498;28;19922;-81
2023/11/01 06:53:15;;;;;;;;;;;;;;;4.63;100.00;99849.75;4993239;28;19930;-81
2023/11/01 06:55:49;;;;;;;;;;;;;;;4.56;100.00;99847.31;4992415;28;19929;-80
2023/11/01 06:58:23;;;;;;;;;;;;;;;4.65;100.00;99847.63;4978287;28;19929;-81
2023/11/01 07:00:51;;;;;;;;;;;;;;;4.65;100.00;99850.31;5004654;28;19922;-85
2023/11/01 07:03:19;;;;;;;;;;;;;;;4.65;100.00;99859.22;4992041;28;19928;-83
2023/11/01 07:05:52;;;;;;;;;;;;;;;4.67;100.00;99846.31;4996777;28;20398;-81
2023/11/01 07:08:25;;;;;;;;;;;;;;;4.64;100.00;99851.38;4991379;28;21733;-82
2023/11/01 07:10:53;;;;;;;;;;;;;;;4.75;100.00;99850.38;4987572;28;19922;-82
2023/11/01 07:13:27;;;;;;;;;;;;;;;4.75;100.00;99851.19;4991916;28;19921;-80
2023/11/01 07:15:55;;;;;;;;;;;;;;;4.75;100.00;99843.13;4997767;28;19925;-81
2023/11/01 07:18:23;;;;;;;;;;;;;;;4.70;100.00;99844.97;4986974;28;19928;-80
2023/11/01 07:20:56;;;;;;;;;;;;;;;4.70;100.00;99839.59;4995230;28;19933;-82
2023/11/01 07:23:24;;;;;;;;;;;;;;;4.70;100.00;99844.97;4992316;28;19937;-80
2023/11/01 07:25:57;;;;;;;;;;;;;;;4.70;100.00;99837.69;4977430;28;19922;-81
2023/11/01 07:28:27;;;;;;;;;;;;;;;4.69;100.00;99832.56;4990562;28;19933;-80
2023/11/01 07:30:54;;;;;;;;;;;;;;;4.73;100.00;99828.28;4993506;28;19922;-81
2023/11/01 07:33:22;;;;;;;;;;;;;;;4.70;100.00;99832.31;4992140;28;19929;-79
2023/11/01 07:35:50;;;;;;;;;;;;;;;4.74;100.00;99828.00;4992673;28;19926;-80
2023/11/01 07:38:18;;;;;;;;;;;;;;;4.79;100.00;99826.41;4988388;28;19945;-80
2023/11/01 07:40:51;;;;;;;;;;;;;;;4.80;100.00;99823.44;4992338;28;20285;-82
2023/11/01 07:43:24;;;;;;;;;;;;;;;4.81;100.00;99822.38;4990354;28;19928;-80
2023/11/01 07:45:59;;;;;;;;;;;;;;;4.81;100.00;99838.56;4992047;28;20298;-80
2023/11/01 07:48:27;;;;;;;;;;;;;;;4.81;100.00;99825.09;4989513;28;19922;-80
2023/11/01 07:51:01;;;;;;;;;;;;;;;4.77;100.00;99830.19;4990809;28;19922;-84
2023/11/01 07:53:29;;;;;;;;;;;;;;;4.82;100.00;99823.19;4989376;28;19922;-80
2023/11/01 07:55:57;;;;;;;;;;;;;;;4.85;100.00;99817.28;4993834;28;19922;-81
2023/11/01 07:58:26;;;;;;;;;;;;;;;4.88;100.00;99816.75;4994782;28;19921;-80
2023/11/01 08:00:54;;;;;;;;;;;;;;;4.92;100.00;99826.75;4994528;28;19922;-83
2023/11/01 08:03:24;;;;;;;;;;;;;;;4.90;100.00;99817.28;4988389;28;19929;-83
2023/11/01 08:05:52;;;;;;;;;;;;;;;4.93;100.00;99816.78;4971801;28;19925;-83
2023/11/01 08:08:25;;;;;;;;;;;;;;;4.96;100.00;99802.78;4990936;28;19929;-85
2023/11/01 08:10:53;;;;;;;;;;;;;;;5.04;100.00;99802.25;4990961;28;19929;-82
2023/11/01 08:13:26;;;;;;;;;;;;;;;5.04;100.00;99802.25;4973766;28;19934;-82
2023/11/01 08:15:59;;;;;;;;;;;;;;;5.11;100.00;99802.03;4969205;28;19922;-83
2023/11/01 08:18:31;;;;;;;;;;;;;;;5.14;100.00;99782.59;4974961;28;19926;-84
2023/11/01 08:21:05;;;;;;;;;;;;;;;5.19;100.00;99789.88;4957193;28;19940;-84
2023/11/01 08:23:35;;;;;;;;;;;;;;;5.22;100.00;99789.34;4972018;28;19941;-84
2023/11/01 08:26:08;;;;;;;;;;;;;;;5.27;100.00;99783.97;4955237;28;20385;-86
2023/11/01 08:28:36;;;;;;;;;;;;;;;5.30;100.00;99772.63;4974942;28;19929;-86
2023/11/01 08:31:04;;;;;;;;;;;;;;;5.39;100.00;99776.44;4970600;28;19937;-85
2023/11/01 08:33:39;;;;;;;;;;;;;;;5.48;100.00;99782.13;4974125;28;20985;-85
2023/11/01 08:36:07;;;;;;;;;;;;;;;5.53;100.00;99789.44;4960599;28;19922;-88
2023/11/01 08:38:40;;;;;;;;;;;;;;;5.51;100.00;99787.00;4969132;28;19937;-87
2023/11/01 08:41:09;;;;;;;;;;;;;;;5.51;100.00;99775.38;4968035;28;20890;-86
2023/11/01 08:43:37;;;;;;;;;;;;;;;5.50;100.00;99779.97;4954147;28;20004;-86
2023/11/01 08:46:06;;;;;;;;;;;;;;;5.49;100.00;99782.94;4960200;28;19929;-87
2023/11/01 08:48:34;;;;;;;;;;;;;;;5.53;100.00;99771.34;4962350;28;19930;-88
2023/11/01 08:51:03;;;;;;;;;;;;;;;5.58;100.00;99774.03;4970270;28;21228;-87
2023/11/01 08:53:31;;;;;;;;;;;;;;;5.70;100.00;99775.66;4979126;28;19929;-87
2023/11/01 08:55:59;;;;;;;;;;;;;;;5.69;100.00;99776.72;4975593;28;19930;-89
2023/11/01 08:58:27;;;;;;;;;;;;;;;5.76;100.00;99772.69;4976851;28;19930;-90
2023/11/01 09:00:55;;;;;;;;;;;;;;;5.88;100.00;99763.50;4969316;28;20571;-86
2023/11/01 09:03:29;;;;;;;;;;;;;;;5.92;100.00;99770.00;4969034;28;19936;-85
2023/11/01 09:06:03;;;;;;;;;;;;;;;6.00;100.00;99763.28;4971680;28;19929;-87
2023/11/01 09:08:31;;;;;;;;;;;;;;;6.04;100.00;99759.75;4975245;28;19929;-87
2023/11/01 09:10:59;;;;;;;;;;;;;;;6.14;100.00;99756.22;4973731;28;19936;-87
2023/11/01 09:13:27;;;;;;;;;;;;;;;6.18;100.00;99760.00;4971055;28;20543;-84
2023/11/01 09:15:55;;;;;;;;;;;;;;;6.28;100.00;99764.56;4969011;28;19930;-83
2023/11/01 09:18:28;;;;;;;;;;;;;;;6.29;100.00;99756.19;4975611;28;19972;-83
2023/11/01 09:20:57;;;;;;;;;;;;;;;6.36;100.00;99749.69;4974739;28;19930;-89
2023/11/01 09:23:27;;;;;;;;;;;;;;;6.35;100.00;99754.28;4968156;28;19956;-86
2023/11/01 09:25:55;;;;;;;;;;;;;;;6.45;100.00;99756.16;4959299;28;19930;-88
2023/11/01 09:28:23;;;;;;;;;;;;;;;6.49;100.00;99743.72;4972751;28;20390;-83
2023/11/01 09:30:51;;;;;;;;;;;;;;;6.60;100.00;99752.56;4955304;28;19937;-84
2023/11/01 09:33:19;;;;;;;;;;;;;;;6.63;100.00;99749.34;4956896;28;19937;-86
2023/11/01 09:35:47;;;;;;;;;;;;;;;6.63;100.00;99752.84;4958781;28;19929;-84
2023/11/01 09:38:15;;;;;;;;;;;;;;;6.62;100.00;99751.22;4973621;28;19922;-84
2023/11/01 09:40:45;;;;;;;;;;;;;;;6.64;100.00;99749.06;4970720;28;19930;-84
2023/11/01 09:43:19;;;;;;;;;;;;;;;6.68;100.00;99745.81;4974777;28;19929;-85
2023/11/01 09:45:47;;;;;;;;;;;;;;;6.74;100.00;99747.38;4971304;28;19929;-85
2023/11/01 09:48:16;;;;;;;;;;;;;;;6.79;100.00;99742.78;4966498;28;20378;-84
2023/11/01 09:50:44;;;;;;;;;;;;;;;6.84;100.00;99743.84;4966958;28;19929;-83
2023/11/01 09:53:13;;;;;;;;;;;;;;;6.83;100.00;99739.53;4967104;28;19933;-86
2023/11/01 09:55:47;;;;;;;;;;;;;;;6.84;100.00;99727.63;4970624;28;19922;-86
2023/11/01 09:58:18;;;;;;;;;;;;;;;6.92;100.00;99729.75;4968691;28;20603;-83
2023/11/01 10:00:52;;;;;;;;;;;;;;;6.97;100.00;99733.22;4978529;28;19929;-82
2023/11/01 10:03:22;;;;;;;;;;;;;;;7.02;100.00;99726.97;4984170;28;19930;-86
2023/11/01 10:05:50;;;;;;;;;;;;;;;7.07;100.00;99715.31;4970142;28;21196;-88
2023/11/01 10:08:23;;;;;;;;;;;;;;;7.11;100.00;99713.66;4969009;28;19929;-86
2023/11/01 10:10:54;;;;;;;;;;;;;;;7.17;100.00;99714.44;4970827;28;20507;-83
2023/11/01 10:13:22;;;;;;;;;;;;;;;7.23;100.00;99705.19;4971320;28;19929;-87
2023/11/01 10:15:55;;;;;;;;;;;;;;;7.25;100.00;99709.25;4972567;28;20588;-87
2023/11/01 10:18:28;;;;;;;;;;;;;;;7.41;100.00;99699.09;4976356;28;19925;-85
2023/11/01 10:21:01;;;;;;;;;;;;;;;7.44;100.00;99686.91;4970657;28;19930;-88
2023/11/01 10:23:29;;;;;;;;;;;;;;;7.54;100.00;99691.41;4967037;28;19930;-87
2023/11/01 10:25:58;;;;;;;;;;;;;;;7.57;100.00;99697.09;4956240;28;19930;-83
2023/11/01 10:28:27;;;;;;;;;;;;;;;7.61;100.00;99678.34;4973979;28;19929;-87
2023/11/01 10:31:00;;;;;;;;;;;;;;;7.72;100.00;99682.59;4974077;28;19941;-87
2023/11/01 10:33:30;;;;;;;;;;;;;;;7.75;100.00;99673.09;4970860;28;19936;-87
2023/11/01 10:35:59;;;;;;;;;;;;;;;7.84;100.00;99671.38;4972173;28;19933;-82
2023/11/01 10:38:28;;;;;;;;;;;;;;;7.93;100.00;99668.88;4972705;28;19922;-87
2023/11/01 10:40:58;;;;;;;;;;;;;;;7.91;100.00;99666.44;4974783;28;19929;-84
2023/11/01 10:43:28;;;;;;;;;;;;;;;7.93;100.00;99655.31;4965729;28;19936;-87
2023/11/01 10:45:57;;;;;;;;;;;;;;;7.93;100.00;99658.03;4951313;28;19929;-88
2023/11/01 10:48:25;;;;;;;;;;;;;;;7.97;100.00;99656.38;4970034;28;20585;-84
2023/11/01 10:50:53;;;;;;;;;;;;;;;8.02;100.00;99650.88;4972488;28;20904;-84
2023/11/01 10:53:22;;;;;;;;;;;;;;;8.06;100.00;99646.47;4968869;28;19925;-87
2023/11/01 10:55:51;;;;;;;;;;;;;;;8.13;100.00;99646.97;4968644;28;20407;-88
2023/11/01 10:58:21;;;;;;;;;;;;;;;8.25;100.00;99634.91;4971329;28;19921;-86
2023/11/01 11:00:58;;;;;;;;;;;;;;;8.23;100.00;99628.94;4967498;28;19937;-84
2023/11/01 11:03:32;;;;;;;;;;;;;;;8.26;100.00;99633.78;4971833;28;19932;-84
2023/11/01 11:06:09;;;;;;;;;;;;;;;8.33;100.00;99631.56;4977887;28;19930;-87
2023/11/01 11:08:37;;;;;;;;;;;;;;;8.35;100.00;99621.22;4972486;28;19937;-85
2023/11/01 11:11:17;;;;;;;;;;;;;;;8.37;100.00;99631.75;4955951;28;20479;-85
2023/11/01 11:13:51;;;;;;;;;;;;;;;8.43;100.00;99617.84;4953405;28;21702;-82
2023/11/01 11:16:21;;;;;;;;;;;;;;;8.52;100.00;99609.91;4970854;28;19922;-84
2023/11/01 11:18:57;;;;;;;;;;;;;;;8.61;100.00;99607.34;4977181;28;20691;-83
2023/11/01 11:21:48;;;;;;;;;;;;;;;8.70;100.00;99602.06;4971383;28;19937;-89
2023/11/01 11:24:35;;;;;;;;;;;;;;;8.72;100.00;99605.31;4950307;28;19930;-87
2023/11/01 11:27:29;;;;;;;;;;;;;;;8.77;100.00;99597.06;4971808;28;19930;-86
2023/11/01 11:29:56;;;;;;;;;;;;;;;8.86;100.00;99595.31;4973138;28;19922;-82
2023/11/01 11:32:26;;;;;;;;;;;;;;;8.81;100.00;99596.19;4969835;28;19925;-83
2023/11/01 11:35:18;;;;;;;;;;;;;;;8.83;100.00;99598.63;4977088;28;19929;-83
2023/11/01 11:37:46;;;;;;;;;;;;;;;8.85;100.00;99599.94;4965704;28;21310;-87
2023/11/01 11:40:24;;;;;;;;;;;;;;;8.85;100.00;99582.84;4966176;28;19929;-85
2023/11/01 11:42:52;;;;;;;;;;;;;;;8.85;100.00;99580.94;4968719;28;19933;-84
2023/11/01 11:45:27;;;;;;;;;;;;;;;8.89;100.00;99583.06;4974590;28;20279;-86
2023/11/01 11:47:56;;;;;;;;;;;;;;;8.97;100.00;99579.69;4969968;28;19930;-84
2023/11/01 11:50:24;;;;;;;;;;;;;;;9.04;100.00;99577.38;4972353;28;19922;-86
2023/11/01 11:52:52;;;;;;;;;;;;;;;9.09;100.00;99574.59;4965714;28;19930;-86
2023/11/01 11:55:45;;;;;;;;;;;;;;;9.13;100.00;99570.19;4959044;28;20633;-85
2023/11/01 11:58:13;;;;;;;;;;;;;;;9.13;100.00;99570.19;4968380;28;19937;-88
2023/11/01 12:00:47;;;;;;;;;;;;;;;9.09;100.00;99562.94;4968501;28;20497;-88
2023/11/01 12:03:23;;;;;;;;;;;;;;;9.09;100.00;99555.59;4955102;28;19929;-89
2023/11/01 12:06:00;;;;;;;;;;;;;;;9.13;100.00;99556.63;4971967;28;19929;-84
2023/11/01 12:08:34;;;;;;;;;;;;;;;9.17;100.00;99554.91;4974090;28;20145;-86
2023/11/01 12:11:02;;;;;;;;;;;;;;;9.22;100.00;99551.28;4981397;28;19941;-84
2023/11/01 12:13:39;;;;;;;;;;;;;;;9.22;100.00;99542.34;4942390;28;19937;-88
2023/11/01 12:16:07;;;;;;;;;;;;;;;9.21;100.00;99538.84;4973184;28;19937;-89
2023/11/01 12:18:37;;;;;;;;;;;;;;;9.24;100.00;99526.56;4978154;28;19930;-88
2023/11/01 12:21:12;;;;;;;;;;;;;;;9.23;100.00;99527.69;4968609;28;19941;-89
2023/11/01 12:23:45;;;;;;;;;;;;;;;9.17;100.00;99516.91;4968663;28;19936;-85
2023/11/01 12:26:13;;;;;;;;;;;;;;;9.21;100.00;99529.88;4971647;28;20476;-88
2023/11/01 12:28:49;;;;;;;;;;;;;;;9.19;100.00;99530.19;4957930;28;19922;-87
2023/11/01 12:31:18;;;;;;;;;;;;;;;9.14;100.00;99522.13;4971430;28;20676;-87
2023/11/01 12:33:47;;;;;;;;;;;;;;;9.11;100.00;99520.00;4947224;28;19922;-88
2023/11/01 12:36:28;;;;;;;;;;;;;;;9.07;100.00;99522.50;4953497;28;19964;-88
2023/11/01 12:38:55;;;;;;;;;;;;;;;9.04;100.00;99519.59;4975017;28;19976;-88
2023/11/01 12:41:25;;;;;;;;;;;;;;;9.03;100.00;99516.06;4974429;28;19937;-86
2023/11/01 12:43:53;;;;;;;;;;;;;;;9.05;100.00;99510.38;4972630;28;20461;-86
2023/11/01 12:46:21;;;;;;;;;;;;;;;9.01;100.00;99516.38;4972609;28;19929;-86
2023/11/01 12:48:55;;;;;;;;;;;;;;;9.04;100.00;99511.47;4971621;28;19929;-85
2023/11/01 12:51:23;;;;;;;;;;;;;;;9.02;100.00;99511.75;4974430;28;20842;-90
2023/11/01 12:53:56;;;;;;;;;;;;;;;9.04;100.00;99503.31;4973526;28;19930;-86
2023/11/01 12:56:24;;;;;;;;;;;;;;;9.07;100.00;99500.00;4964344;28;19921;-87
2023/11/01 12:58:57;;;;;;;;;;;;;;;9.07;100.00;99491.84;4970962;28;19937;-88
2023/11/01 13:01:30;;;;;;;;;;;;;;;9.10;100.00;99493.97;4952167;28;19922;-89
2023/11/01 13:04:01;;;;;;;;;;;;;;;9.13;100.00;99490.69;4956144;28;19936;-90
2023/11/01 13:06:29;;;;;;;;;;;;;;;9.12;100.00;99489.06;4961512;28;20444;-89